createdAt,value
2016-03-29T00:00:10.145Z,0
2016-03-29T00:01:10.180Z,0
2016-03-29T00:02:10.183Z,0
2016-03-29T00:03:10.186Z,0
2016-03-29T00:04:10.204Z,0
2016-03-29T00:05:10.254Z,0
2016-03-29T00:06:10.241Z,0
2016-03-29T00:07:10.244Z,0
2016-03-29T00:08:10.261Z,0
2016-03-29T00:09:10.264Z,0
2016-03-29T00:10:10.282Z,0
2016-03-29T00:11:10.317Z,0
2016-03-29T00:12:10.319Z,0
2016-03-29T00:13:10.322Z,0
2016-03-29T00:14:10.356Z,0
2016-03-29T00:15:10.358Z,0
2016-03-29T00:16:10.376Z,0
2016-03-29T00:17:10.379Z,0
2016-03-29T00:18:10.398Z,0
2016-03-29T00:19:10.416Z,0
2016-03-29T00:20:10.418Z,0
2016-03-29T00:21:10.437Z,0
2016-03-29T00:22:10.455Z,0
2016-03-29T00:23:10.489Z,0
2016-03-29T00:24:10.477Z,0
2016-03-29T00:25:10.557Z,0
2016-03-29T00:26:10.529Z,0
2016-03-29T00:27:10.531Z,0
2016-03-29T00:28:10.565Z,0
2016-03-29T00:29:10.553Z,0
2016-03-29T00:30:10.570Z,0
2016-03-29T00:31:10.589Z,0
2016-03-29T00:32:10.591Z,0
2016-03-29T00:33:10.610Z,0
2016-03-29T00:34:10.628Z,0
2016-03-29T00:35:10.631Z,0
2016-03-29T00:36:10.650Z,0
2016-03-29T00:37:10.667Z,0
2016-03-29T00:38:10.686Z,0
2016-03-29T00:39:10.672Z,0
2016-03-29T00:40:10.723Z,0
2016-03-29T00:41:10.741Z,0
2016-03-29T00:42:10.744Z,0
2016-03-29T00:43:10.777Z,0
2016-03-29T00:44:10.764Z,0
2016-03-29T00:45:10.783Z,0
2016-03-29T00:46:10.785Z,0
2016-03-29T00:47:10.820Z,0
2016-03-29T00:48:10.822Z,0
2016-03-29T00:49:10.825Z,0
2016-03-29T00:50:10.859Z,0
2016-03-29T00:51:10.877Z,0
2016-03-29T00:52:10.911Z,0
2016-03-29T00:53:10.898Z,0
2016-03-29T00:54:10.901Z,0
2016-03-29T00:55:10.951Z,0
2016-03-29T00:56:10.954Z,0
2016-03-29T00:57:10.956Z,0
2016-03-29T00:58:10.959Z,0
2016-03-29T00:59:10.962Z,0
2016-03-29T01:00:10.979Z,0
2016-03-29T01:01:11.013Z,0
2016-03-29T01:02:11.017Z,0
2016-03-29T01:03:11.019Z,0
2016-03-29T01:04:11.037Z,0
2016-03-29T01:05:10.899Z,0
2016-03-29T01:06:11.058Z,0
2016-03-29T01:07:11.092Z,0
2016-03-29T01:08:11.084Z,0
2016-03-29T01:09:11.102Z,0
2016-03-29T01:10:11.136Z,0
2016-03-29T01:11:11.139Z,0
2016-03-29T01:12:11.141Z,0
2016-03-29T01:13:11.160Z,0
2016-03-29T01:14:11.178Z,0
2016-03-29T01:15:11.181Z,0
2016-03-29T01:16:11.215Z,0
2016-03-29T01:17:11.233Z,0
2016-03-29T01:18:11.252Z,0
2016-03-29T01:19:11.254Z,0
2016-03-29T01:20:11.257Z,0
2016-03-29T01:21:11.259Z,0
2016-03-29T01:22:11.294Z,0
2016-03-29T01:23:11.312Z,0
2016-03-29T01:24:11.330Z,0
2016-03-29T01:25:11.379Z,0
2016-03-29T01:26:11.382Z,0
2016-03-29T01:27:11.338Z,0
2016-03-29T01:28:11.372Z,0
2016-03-29T01:29:11.375Z,0
2016-03-29T01:30:11.393Z,0
2016-03-29T01:31:11.442Z,0
2016-03-29T01:32:11.445Z,0
2016-03-29T01:33:11.417Z,0
2016-03-29T01:34:11.451Z,0
2016-03-29T01:35:11.453Z,0
2016-03-29T01:36:11.486Z,0
2016-03-29T01:37:11.474Z,0
2016-03-29T01:38:11.508Z,0
2016-03-29T01:39:11.495Z,0
2016-03-29T01:40:11.513Z,0
2016-03-29T01:41:11.516Z,0
2016-03-29T01:42:11.550Z,0
2016-03-29T01:43:11.569Z,0
2016-03-29T01:44:11.587Z,0
2016-03-29T01:45:11.590Z,0
2016-03-29T01:46:11.593Z,0
2016-03-29T01:47:11.610Z,0
2016-03-29T01:48:11.629Z,0
2016-03-29T01:49:11.646Z,0
2016-03-29T01:50:11.666Z,0
2016-03-29T01:51:11.512Z,0
2016-03-29T01:52:11.671Z,0
2016-03-29T01:53:11.705Z,0
2016-03-29T01:54:11.707Z,0
2016-03-29T01:55:11.726Z,0
2016-03-29T01:56:11.619Z,0
2016-03-29T01:57:11.732Z,0
2016-03-29T01:58:11.750Z,0
2016-03-29T01:59:11.628Z,0
2016-03-29T02:00:11.801Z,0
2016-03-29T02:01:11.804Z,0
2016-03-29T02:02:11.807Z,0
2016-03-29T02:03:11.825Z,0
2016-03-29T02:04:11.844Z,0
2016-03-29T02:05:11.862Z,0
2016-03-29T02:06:11.865Z,0
2016-03-29T02:07:11.867Z,0
2016-03-29T02:08:11.902Z,0
2016-03-29T02:09:11.905Z,0
2016-03-29T02:10:11.923Z,0
2016-03-29T02:11:12.081Z,0
2016-03-29T02:12:11.958Z,0
2016-03-29T02:13:11.961Z,0
2016-03-29T02:14:11.996Z,0
2016-03-29T02:15:11.999Z,0
2016-03-29T02:16:12.017Z,0
2016-03-29T02:17:12.036Z,0
2016-03-29T02:18:12.022Z,0
2016-03-29T02:19:12.040Z,0
2016-03-29T02:20:12.059Z,0
2016-03-29T02:21:12.077Z,0
2016-03-29T02:22:12.079Z,0
2016-03-29T02:23:12.098Z,0
2016-03-29T02:24:12.100Z,0
2016-03-29T02:25:12.119Z,0
2016-03-29T02:26:12.075Z,0
2016-03-29T02:27:12.140Z,0
2016-03-29T02:28:12.159Z,0
2016-03-29T02:29:12.192Z,0
2016-03-29T02:30:12.195Z,0
2016-03-29T02:31:12.197Z,0
2016-03-29T02:32:12.200Z,0
2016-03-29T02:33:12.234Z,0
2016-03-29T02:34:12.237Z,0
2016-03-29T02:35:12.255Z,0
2016-03-29T02:36:12.273Z,0
2016-03-29T02:37:12.276Z,0
2016-03-29T02:38:12.294Z,0
2016-03-29T02:39:12.297Z,0
2016-03-29T02:40:12.316Z,0
2016-03-29T02:41:12.381Z,0
2016-03-29T02:42:12.352Z,0
2016-03-29T02:43:12.371Z,0
2016-03-29T02:44:12.374Z,0
2016-03-29T02:45:12.392Z,0
2016-03-29T02:46:12.394Z,0
2016-03-29T02:47:12.412Z,0
2016-03-29T02:48:12.416Z,0
2016-03-29T02:49:12.449Z,0
2016-03-29T02:50:12.452Z,0
2016-03-29T02:51:12.471Z,0
2016-03-29T02:52:12.489Z,0
2016-03-29T02:53:12.491Z,0
2016-03-29T02:54:12.509Z,0
2016-03-29T02:55:12.528Z,0
2016-03-29T02:56:12.624Z,0
2016-03-29T02:57:12.549Z,0
2016-03-29T02:58:12.567Z,0
2016-03-29T02:59:12.585Z,0
2016-03-29T03:00:12.588Z,0
2016-03-29T03:01:12.623Z,0
2016-03-29T03:02:12.656Z,0
2016-03-29T03:03:12.628Z,0
2016-03-29T03:04:12.646Z,0
2016-03-29T03:05:12.695Z,0
2016-03-29T03:06:12.667Z,0
2016-03-29T03:07:12.670Z,0
2016-03-29T03:08:12.704Z,0
2016-03-29T03:09:12.706Z,0
2016-03-29T03:10:12.724Z,0
2016-03-29T03:11:12.836Z,0
2016-03-29T03:12:12.745Z,0
2016-03-29T03:13:12.747Z,0
2016-03-29T03:14:12.766Z,0
2016-03-29T03:15:12.800Z,0
2016-03-29T03:16:12.819Z,0
2016-03-29T03:17:12.821Z,0
2016-03-29T03:18:12.840Z,0
2016-03-29T03:19:12.843Z,0
2016-03-29T03:20:12.876Z,0
2016-03-29T03:21:12.863Z,0
2016-03-29T03:22:12.881Z,0
2016-03-29T03:23:12.900Z,0
2016-03-29T03:24:12.918Z,0
2016-03-29T03:25:12.921Z,0
2016-03-29T03:26:13.002Z,0
2016-03-29T03:27:12.957Z,0
2016-03-29T03:28:12.960Z,0
2016-03-29T03:29:12.994Z,0
2016-03-29T03:30:12.997Z,0
2016-03-29T03:31:13.015Z,0
2016-03-29T03:32:13.034Z,0
2016-03-29T03:33:13.036Z,0
2016-03-29T03:34:13.039Z,0
2016-03-29T03:35:13.057Z,0
2016-03-29T03:36:13.075Z,0
2016-03-29T03:37:13.095Z,0
2016-03-29T03:38:13.112Z,0
2016-03-29T03:39:13.115Z,0
2016-03-29T03:40:13.164Z,0
2016-03-29T03:41:13.167Z,0
2016-03-29T03:42:13.155Z,0
2016-03-29T03:43:13.172Z,0
2016-03-29T03:44:13.191Z,0
2016-03-29T03:45:13.193Z,0
2016-03-29T03:46:13.212Z,0
2016-03-29T03:47:13.230Z,0
2016-03-29T03:48:13.233Z,0
2016-03-29T03:49:13.283Z,0
2016-03-29T03:50:13.269Z,0
2016-03-29T03:51:13.304Z,0
2016-03-29T03:52:13.306Z,0
2016-03-29T03:53:13.341Z,0
2016-03-29T03:54:13.343Z,0
2016-03-29T03:55:13.392Z,0
2016-03-29T03:56:13.473Z,0
2016-03-29T03:57:13.366Z,0
2016-03-29T03:58:13.400Z,0
2016-03-29T03:59:13.388Z,0
2016-03-29T04:00:13.421Z,0
2016-03-29T04:01:13.424Z,0
2016-03-29T04:02:13.458Z,0
2016-03-29T04:03:13.476Z,0
2016-03-29T04:04:13.479Z,0
2016-03-29T04:05:13.497Z,0
2016-03-29T04:06:13.515Z,0
2016-03-29T04:07:13.502Z,0
2016-03-29T04:08:13.521Z,0
2016-03-29T04:09:13.539Z,0
2016-03-29T04:10:13.448Z,0
2016-03-29T04:11:13.608Z,0
2016-03-29T04:12:13.594Z,0
2016-03-29T04:13:13.613Z,0
2016-03-29T04:14:13.616Z,0
2016-03-29T04:15:13.524Z,0
2016-03-29T04:16:13.652Z,0
2016-03-29T04:17:13.685Z,0
2016-03-29T04:18:13.673Z,0
2016-03-29T04:19:13.707Z,0
2016-03-29T04:20:13.694Z,0
2016-03-29T04:21:13.728Z,0
2016-03-29T04:22:13.730Z,0
2016-03-29T04:23:13.749Z,0
2016-03-29T04:24:13.892Z,0
2016-03-29T04:25:13.801Z,0
2016-03-29T04:26:13.788Z,0
2016-03-29T04:27:13.807Z,0
2016-03-29T04:28:13.825Z,0
2016-03-29T04:29:13.843Z,0
2016-03-29T04:30:13.846Z,0
2016-03-29T04:31:13.880Z,0
2016-03-29T04:32:13.882Z,0
2016-03-29T04:33:13.917Z,4
2016-03-29T04:34:13.904Z,4
2016-03-29T04:35:13.922Z,0
2016-03-29T04:36:13.940Z,4
2016-03-29T04:37:13.943Z,0
2016-03-29T04:38:13.976Z,4
2016-03-29T04:39:14.026Z,4
2016-03-29T04:40:14.014Z,4
2016-03-29T04:41:13.892Z,8
2016-03-29T04:42:14.050Z,8
2016-03-29T04:43:14.037Z,8
2016-03-29T04:44:14.055Z,4
2016-03-29T04:45:14.120Z,4
2016-03-29T04:46:14.108Z,4
2016-03-29T04:47:14.095Z,8
2016-03-29T04:48:14.175Z,8
2016-03-29T04:49:14.178Z,8
2016-03-29T04:50:14.213Z,12
2016-03-29T04:51:14.215Z,12
2016-03-29T04:52:14.233Z,8
2016-03-29T04:53:28.361Z,12
2016-03-29T04:54:14.286Z,12
2016-03-29T04:55:14.272Z,4
2016-03-29T04:56:14.307Z,8
2016-03-29T04:57:14.263Z,4
2016-03-29T04:58:14.250Z,4
2016-03-29T04:59:14.283Z,4
2016-03-29T05:00:14.130Z,12
2016-03-29T05:01:14.304Z,20
2016-03-29T05:02:14.307Z,28
2016-03-29T05:03:14.326Z,40
2016-03-29T05:04:14.328Z,44
2016-03-29T05:05:14.345Z,48
2016-03-29T05:06:14.396Z,48
2016-03-29T05:07:14.398Z,36
2016-03-29T05:08:14.401Z,40
2016-03-29T05:09:14.404Z,44
2016-03-29T05:10:14.438Z,48
2016-03-29T05:11:14.347Z,56
2016-03-29T05:12:14.474Z,80
2016-03-29T05:13:14.478Z,100
2016-03-29T05:14:14.511Z,116
2016-03-29T05:15:14.513Z,124
2016-03-29T05:16:14.516Z,132
2016-03-29T05:17:14.535Z,140
2016-03-29T05:18:14.553Z,148
2016-03-29T05:19:14.571Z,140
2016-03-29T05:20:14.559Z,108
2016-03-29T05:21:14.592Z,84
2016-03-29T05:22:14.595Z,48
2016-03-29T05:23:14.597Z,24
2016-03-29T05:24:14.632Z,16
2016-03-29T05:25:14.650Z,12
2016-03-29T05:26:14.574Z,16
2016-03-29T05:27:14.687Z,20
2016-03-29T05:28:14.705Z,20
2016-03-29T05:29:14.708Z,28
2016-03-29T05:30:14.711Z,36
2016-03-29T05:31:14.713Z,32
2016-03-29T05:32:14.747Z,24
2016-03-29T05:33:14.734Z,24
2016-03-29T05:34:14.768Z,20
2016-03-29T05:35:14.770Z,20
2016-03-29T05:36:14.790Z,24
2016-03-29T05:37:14.792Z,32
2016-03-29T05:38:14.809Z,52
2016-03-29T05:39:14.828Z,60
2016-03-29T05:40:14.847Z,68
2016-03-29T05:41:14.927Z,84
2016-03-29T05:42:14.867Z,100
2016-03-29T05:43:14.917Z,112
2016-03-29T05:44:14.919Z,96
2016-03-29T05:45:14.922Z,84
2016-03-29T05:46:14.941Z,88
2016-03-29T05:47:14.944Z,104
2016-03-29T05:48:14.961Z,124
2016-03-29T05:49:14.980Z,152
2016-03-29T05:50:14.998Z,204
2016-03-29T05:51:15.002Z,252
2016-03-29T05:52:15.019Z,316
2016-03-29T05:53:15.022Z,392
2016-03-29T05:54:15.056Z,428
2016-03-29T05:55:15.059Z,484
2016-03-29T05:56:15.077Z,596
2016-03-29T05:57:15.079Z,768
2016-03-29T05:58:15.129Z,888
2016-03-29T05:59:15.132Z,848
2016-03-29T06:00:15.103Z,892
2016-03-29T06:01:14.981Z,964
2016-03-29T06:02:15.140Z,916
2016-03-29T06:03:15.143Z,868
2016-03-29T06:04:15.162Z,904
2016-03-29T06:05:15.195Z,880
2016-03-29T06:06:15.198Z,748
2016-03-29T06:07:15.216Z,616
2016-03-29T06:08:15.234Z,616
2016-03-29T06:09:15.237Z,692
2016-03-29T06:10:15.243Z,760
2016-03-29T06:11:15.278Z,788
2016-03-29T06:12:15.296Z,888
2016-03-29T06:13:15.299Z,1048
2016-03-29T06:14:15.302Z,1320
2016-03-29T06:15:15.319Z,1700
2016-03-29T06:16:15.338Z,2200
2016-03-29T06:17:15.340Z,2592
2016-03-29T06:18:15.360Z,2180
2016-03-29T06:19:15.377Z,996
2016-03-29T06:20:15.396Z,472
2016-03-29T06:21:15.398Z,244
2016-03-29T06:22:15.401Z,184
2016-03-29T06:23:15.419Z,156
2016-03-29T06:24:15.437Z,152
2016-03-29T06:25:15.456Z,164
2016-03-29T06:26:15.459Z,192
2016-03-29T06:27:15.492Z,232
2016-03-29T06:28:15.495Z,220
2016-03-29T06:29:15.497Z,184
2016-03-29T06:30:15.517Z,196
2016-03-29T06:31:15.519Z,236
2016-03-29T06:32:15.537Z,296
2016-03-29T06:33:15.399Z,336
2016-03-29T06:34:15.558Z,364
2016-03-29T06:35:15.577Z,508
2016-03-29T06:36:15.594Z,664
2016-03-29T06:37:15.614Z,628
2016-03-29T06:38:15.631Z,536
2016-03-29T06:39:15.634Z,536
2016-03-29T06:40:15.683Z,476
2016-03-29T06:41:15.671Z,332
2016-03-29T06:42:15.674Z,312
2016-03-29T06:43:15.691Z,460
2016-03-29T06:44:15.726Z,636
2016-03-29T06:45:15.712Z,792
2016-03-29T06:46:15.732Z,1084
2016-03-29T06:47:15.749Z,1380
2016-03-29T06:48:15.752Z,1548
2016-03-29T06:49:15.771Z,1632
2016-03-29T06:50:15.804Z,3912
2016-03-29T06:51:15.807Z,1888
2016-03-29T06:52:15.810Z,5520
2016-03-29T06:53:15.844Z,14340
2016-03-29T06:54:15.822Z,14664
2016-03-29T06:55:15.822Z,12820
2016-03-29T06:56:15.825Z,18336
2016-03-29T06:57:15.841Z,7560
2016-03-29T06:58:15.827Z,5792
2016-03-29T06:59:15.817Z,1868
2016-03-29T07:00:15.829Z,1272
2016-03-29T07:01:15.841Z,652
2016-03-29T07:02:15.869Z,620
2016-03-29T07:03:15.850Z,632
2016-03-29T07:04:15.864Z,744
2016-03-29T07:05:15.880Z,1052
2016-03-29T07:06:15.943Z,1532
2016-03-29T07:07:15.913Z,2204
2016-03-29T07:08:15.914Z,3368
2016-03-29T07:09:15.946Z,4676
2016-03-29T07:10:15.963Z,5056
2016-03-29T07:11:15.964Z,13788
2016-03-29T07:12:15.982Z,18400
2016-03-29T07:13:16.016Z,15808
2016-03-29T07:14:16.033Z,4692
2016-03-29T07:15:16.019Z,4148
2016-03-29T07:16:16.054Z,2908
2016-03-29T07:17:16.071Z,1732
2016-03-29T07:18:16.121Z,1872
2016-03-29T07:19:16.090Z,1632
2016-03-29T07:20:16.123Z,1600
2016-03-29T07:21:16.126Z,1972
2016-03-29T07:22:16.145Z,3036
2016-03-29T07:23:16.147Z,3652
2016-03-29T07:24:16.180Z,1456
2016-03-29T07:25:16.184Z,1048
2016-03-29T07:26:16.203Z,924
2016-03-29T07:27:16.236Z,1064
2016-03-29T07:28:16.239Z,1220
2016-03-29T07:29:16.272Z,1032
2016-03-29T07:30:16.259Z,1172
2016-03-29T07:31:16.294Z,1548
2016-03-29T07:32:16.311Z,1860
2016-03-29T07:33:16.330Z,2312
2016-03-29T07:34:16.333Z,2276
2016-03-29T07:35:16.351Z,13476
2016-03-29T07:36:16.369Z,13760
2016-03-29T07:37:16.388Z,19936
2016-03-29T07:38:16.406Z,37024
2016-03-29T07:39:16.425Z,3316
2016-03-29T07:40:16.302Z,6520
2016-03-29T07:41:16.446Z,2768
2016-03-29T07:42:16.480Z,3192
2016-03-29T07:43:16.498Z,3156
2016-03-29T07:44:16.516Z,3340
2016-03-29T07:45:16.518Z,2960
2016-03-29T07:46:16.552Z,3828
2016-03-29T07:47:16.555Z,8204
2016-03-29T07:48:16.574Z,4156
2016-03-29T07:49:16.592Z,4696
2016-03-29T07:50:16.611Z,6200
2016-03-29T07:51:16.660Z,5740
2016-03-29T07:52:16.663Z,5780
2016-03-29T07:53:16.681Z,5732
2016-03-29T07:54:16.685Z,3296
2016-03-29T07:55:16.687Z,13540
2016-03-29T07:56:16.720Z,26656
2016-03-29T07:57:16.724Z,29344
2016-03-29T07:58:16.773Z,41024
2016-03-29T07:59:16.776Z,28096
2016-03-29T08:00:16.779Z,24672
2016-03-29T08:01:16.797Z,25760
2016-03-29T08:02:16.831Z,12636
2016-03-29T08:03:16.849Z,11152
2016-03-29T08:04:16.867Z,29184
2016-03-29T08:05:16.901Z,31680
2016-03-29T08:06:16.920Z,38944
2016-03-29T08:07:16.814Z,41312
2016-03-29T08:08:16.956Z,48352
2016-03-29T08:09:16.959Z,21888
2016-03-29T08:10:17.056Z,40864
2016-03-29T08:11:17.011Z,5652
2016-03-29T08:12:17.045Z,4196
2016-03-29T08:13:17.063Z,15012
2016-03-29T08:14:17.082Z,22720
2016-03-29T08:15:17.116Z,7960
2016-03-29T08:16:17.134Z,30240
2016-03-29T08:17:17.184Z,7904
2016-03-29T08:18:17.186Z,33664
2016-03-29T08:19:17.189Z,10776
2016-03-29T08:20:17.223Z,3088
2016-03-29T08:21:17.241Z,2056
2016-03-29T08:22:17.275Z,1640
2016-03-29T08:23:17.310Z,1556
2016-03-29T08:24:17.328Z,1564
2016-03-29T08:25:17.346Z,2084
2016-03-29T08:26:17.365Z,3084
2016-03-29T08:27:17.382Z,14868
2016-03-29T08:28:17.416Z,4660
2016-03-29T08:29:17.419Z,3948
2016-03-29T08:30:17.438Z,3800
2016-03-29T08:31:17.487Z,13012
2016-03-29T08:32:17.490Z,8768
2016-03-29T08:33:17.508Z,3248
2016-03-29T08:34:17.526Z,2276
2016-03-29T08:35:17.560Z,22912
2016-03-29T08:36:17.579Z,8156
2016-03-29T08:37:17.598Z,6344
2016-03-29T08:38:17.490Z,3784
2016-03-29T08:39:17.634Z,4608
2016-03-29T08:40:17.667Z,10384
2016-03-29T08:41:17.686Z,4064
2016-03-29T08:42:17.704Z,2132
2016-03-29T08:43:17.722Z,1536
2016-03-29T08:44:17.741Z,1504
2016-03-29T08:45:17.758Z,1824
2016-03-29T08:46:17.778Z,2172
2016-03-29T08:47:17.811Z,2324
2016-03-29T08:48:17.830Z,1740
2016-03-29T08:49:17.864Z,2096
2016-03-29T08:50:17.866Z,4932
2016-03-29T08:51:17.885Z,1844
2016-03-29T08:52:17.918Z,1552
2016-03-29T08:53:17.938Z,1636
2016-03-29T08:54:17.940Z,1844
2016-03-29T08:55:17.974Z,14072
2016-03-29T08:56:18.008Z,3072
2016-03-29T08:57:18.010Z,2244
2016-03-29T08:58:18.029Z,1532
2016-03-29T08:59:18.047Z,1020
2016-03-29T09:00:18.065Z,860
2016-03-29T09:01:18.084Z,1112
2016-03-29T09:02:18.117Z,11360
2016-03-29T09:03:18.120Z,2892
2016-03-29T09:04:18.154Z,1672
2016-03-29T09:05:18.016Z,1292
2016-03-29T09:06:18.177Z,1692
2016-03-29T09:07:18.210Z,10940
2016-03-29T09:08:18.229Z,2932
2016-03-29T09:09:18.262Z,1812
2016-03-29T09:10:18.280Z,1316
2016-03-29T09:11:18.283Z,2096
2016-03-29T09:12:18.301Z,12144
2016-03-29T09:13:18.335Z,2968
2016-03-29T09:14:18.415Z,1864
2016-03-29T09:15:18.372Z,1856
2016-03-29T09:16:18.390Z,2968
2016-03-29T09:17:18.409Z,4188
2016-03-29T09:18:18.427Z,7384
2016-03-29T09:19:18.445Z,8276
2016-03-29T09:20:18.464Z,5964
2016-03-29T09:21:18.466Z,3152
2016-03-29T09:22:18.485Z,2776
2016-03-29T09:23:18.519Z,2852
2016-03-29T09:24:18.537Z,2924
2016-03-29T09:25:18.556Z,3376
2016-03-29T09:26:18.620Z,13652
2016-03-29T09:27:18.592Z,3424
2016-03-29T09:28:18.610Z,3148
2016-03-29T09:29:18.628Z,2980
2016-03-29T09:30:18.646Z,3820
2016-03-29T09:31:18.665Z,4764
2016-03-29T09:32:18.699Z,7256
2016-03-29T09:33:18.702Z,2952
2016-03-29T09:34:18.736Z,1928
2016-03-29T09:35:18.755Z,1964
2016-03-29T09:36:18.772Z,11312
2016-03-29T09:37:18.791Z,3688
2016-03-29T09:38:18.809Z,5940
2016-03-29T09:39:18.827Z,3600
2016-03-29T09:40:18.690Z,2648
2016-03-29T09:41:18.926Z,3136
2016-03-29T09:42:19.023Z,2388
2016-03-29T09:43:18.900Z,11436
2016-03-29T09:44:18.918Z,12404
2016-03-29T09:45:18.953Z,10104
2016-03-29T09:46:18.976Z,7688
2016-03-29T09:47:18.995Z,3108
2016-03-29T09:48:19.044Z,2832
2016-03-29T09:49:19.047Z,7776
2016-03-29T09:50:19.049Z,7644
2016-03-29T09:51:19.083Z,3760
2016-03-29T09:52:19.086Z,3388
2016-03-29T09:53:19.119Z,4052
2016-03-29T09:54:19.139Z,4444
2016-03-29T09:55:19.172Z,5024
2016-03-29T09:56:19.191Z,4332
2016-03-29T09:57:19.475Z,8056
2016-03-29T09:58:19.211Z,3948
2016-03-29T09:59:19.230Z,2984
2016-03-29T10:00:19.263Z,7264
2016-03-29T10:01:19.282Z,8332
2016-03-29T10:02:19.299Z,4140
2016-03-29T10:03:19.334Z,3420
2016-03-29T10:04:19.337Z,3032
2016-03-29T10:05:19.354Z,3296
2016-03-29T10:06:19.389Z,8092
2016-03-29T10:07:19.391Z,8948
2016-03-29T10:08:19.426Z,8300
2016-03-29T10:09:19.444Z,6448
2016-03-29T10:10:19.493Z,10448
2016-03-29T10:11:19.512Z,7048
2016-03-29T10:12:19.795Z,9976
2016-03-29T10:13:19.565Z,6824
2016-03-29T10:14:19.582Z,4028
2016-03-29T10:15:19.585Z,3836
2016-03-29T10:16:19.604Z,10504
2016-03-29T10:17:19.622Z,7100
2016-03-29T10:18:19.640Z,4836
2016-03-29T10:19:19.706Z,4896
2016-03-29T10:20:19.708Z,4512
2016-03-29T10:21:19.742Z,4344
2016-03-29T10:22:19.744Z,10492
2016-03-29T10:23:19.763Z,6400
2016-03-29T10:24:19.797Z,10764
2016-03-29T10:25:19.831Z,10424
2016-03-29T10:26:19.850Z,9388
2016-03-29T10:27:20.102Z,8628
2016-03-29T10:28:19.902Z,6052
2016-03-29T10:29:19.919Z,4364
2016-03-29T10:30:20.141Z,3804
2016-03-29T10:31:19.971Z,4272
2016-03-29T10:32:20.005Z,3820
2016-03-29T10:33:20.008Z,4860
2016-03-29T10:34:20.057Z,4432
2016-03-29T10:35:20.060Z,8192
2016-03-29T10:36:20.094Z,6256
2016-03-29T10:37:20.096Z,6304
2016-03-29T10:38:20.131Z,9700
2016-03-29T10:39:20.149Z,7100
2016-03-29T10:40:20.184Z,3868
2016-03-29T10:41:20.218Z,8884
2016-03-29T10:42:20.485Z,8696
2016-03-29T10:43:20.238Z,7840
2016-03-29T10:44:20.272Z,6900
2016-03-29T10:45:20.290Z,4284
2016-03-29T10:46:20.434Z,4012
2016-03-29T10:47:20.358Z,3828
2016-03-29T10:48:20.376Z,7552
2016-03-29T10:49:20.379Z,5676
2016-03-29T10:50:20.413Z,5604
2016-03-29T10:51:20.447Z,4492
2016-03-29T10:52:20.466Z,3944
2016-03-29T10:53:20.484Z,3740
2016-03-29T10:54:20.502Z,7632
2016-03-29T10:55:20.521Z,7792
2016-03-29T10:56:20.570Z,3800
2016-03-29T10:57:20.433Z,5452
2016-03-29T10:58:20.638Z,8412
2016-03-29T10:59:20.626Z,6116
2016-03-29T11:00:20.628Z,8076
2016-03-29T11:01:20.678Z,7908
2016-03-29T11:02:20.711Z,7528
2016-03-29T11:03:20.699Z,7288
2016-03-29T11:04:20.733Z,7228
2016-03-29T11:05:20.782Z,6936
2016-03-29T11:06:20.816Z,6612
2016-03-29T11:07:20.834Z,6212
2016-03-29T11:08:20.852Z,6184
2016-03-29T11:09:20.855Z,5984
2016-03-29T11:10:20.874Z,5872
2016-03-29T11:11:20.938Z,5876
2016-03-29T11:12:20.816Z,6124
2016-03-29T11:13:20.960Z,6044
2016-03-29T11:14:20.978Z,5860
2016-03-29T11:15:20.996Z,5820
2016-03-29T11:16:21.014Z,5920
2016-03-29T11:17:21.064Z,5924
2016-03-29T11:18:21.098Z,5916
2016-03-29T11:19:21.085Z,5760
2016-03-29T11:20:21.135Z,5516
2016-03-29T11:21:21.153Z,5244
2016-03-29T11:22:21.187Z,5068
2016-03-29T11:23:21.206Z,4964
2016-03-29T11:24:21.208Z,4960
2016-03-29T11:25:21.226Z,4916
2016-03-29T11:26:21.245Z,4968
2016-03-29T11:27:21.295Z,4968
2016-03-29T11:28:21.314Z,5004
2016-03-29T11:29:21.362Z,5040
2016-03-29T11:30:21.334Z,5016
2016-03-29T11:31:21.367Z,5016
2016-03-29T11:32:21.417Z,4976
2016-03-29T11:33:21.420Z,5044
2016-03-29T11:34:21.454Z,5028
2016-03-29T11:35:21.472Z,5156
2016-03-29T11:36:21.505Z,5224
2016-03-29T11:37:21.525Z,5308
2016-03-29T11:38:21.543Z,5224
2016-03-29T11:39:21.561Z,5260
2016-03-29T11:40:21.596Z,5224
2016-03-29T11:41:21.629Z,5248
2016-03-29T11:42:21.741Z,5260
2016-03-29T11:43:21.681Z,5344
2016-03-29T11:44:21.684Z,5416
2016-03-29T11:45:21.733Z,5488
2016-03-29T11:46:21.736Z,5452
2016-03-29T11:47:21.770Z,5528
2016-03-29T11:48:21.803Z,5704
2016-03-29T11:49:21.806Z,5816
2016-03-29T11:50:21.840Z,5844
2016-03-29T11:51:21.859Z,5732
2016-03-29T11:52:21.986Z,4544
2016-03-29T11:53:21.911Z,5524
2016-03-29T11:54:21.929Z,5412
2016-03-29T11:55:21.948Z,5348
2016-03-29T11:56:21.982Z,5300
2016-03-29T11:57:22.125Z,5328
2016-03-29T11:58:22.034Z,5396
2016-03-29T11:59:22.052Z,5468
2016-03-29T12:00:22.102Z,5560
2016-03-29T12:01:22.105Z,5480
2016-03-29T12:02:22.123Z,5348
2016-03-29T12:03:22.125Z,5264
2016-03-29T12:04:22.160Z,5212
2016-03-29T12:05:22.208Z,4652
2016-03-29T12:06:22.243Z,4944
2016-03-29T12:07:22.243Z,4992
2016-03-29T12:08:22.277Z,4976
2016-03-29T12:09:22.295Z,4960
2016-03-29T12:10:22.313Z,4860
2016-03-29T12:11:22.332Z,4832
2016-03-29T12:12:22.443Z,4900
2016-03-29T12:13:22.415Z,5008
2016-03-29T12:14:22.448Z,5012
2016-03-29T12:15:22.467Z,4724
2016-03-29T12:16:22.502Z,4728
2016-03-29T12:17:22.504Z,4920
2016-03-29T12:18:22.522Z,4932
2016-03-29T12:19:22.540Z,5008
2016-03-29T12:20:22.558Z,4920
2016-03-29T12:21:22.577Z,4964
2016-03-29T12:22:22.627Z,4928
2016-03-29T12:23:22.676Z,5024
2016-03-29T12:24:22.664Z,4964
2016-03-29T12:25:22.682Z,4796
2016-03-29T12:26:22.700Z,4532
2016-03-29T12:27:23.141Z,4528
2016-03-29T12:28:22.769Z,4512
2016-03-29T12:29:22.771Z,4656
2016-03-29T12:30:22.836Z,4720
2016-03-29T12:31:22.839Z,4864
2016-03-29T12:32:22.857Z,4900
2016-03-29T12:33:22.875Z,4920
2016-03-29T12:34:22.894Z,4892
2016-03-29T12:35:22.927Z,5208
2016-03-29T12:36:22.961Z,5384
2016-03-29T12:37:22.995Z,5700
2016-03-29T12:38:22.998Z,5776
2016-03-29T12:39:23.032Z,5504
2016-03-29T12:40:23.034Z,5180
2016-03-29T12:41:23.099Z,5120
2016-03-29T12:42:23.321Z,5164
2016-03-29T12:43:23.121Z,4120
2016-03-29T12:44:23.140Z,3568
2016-03-29T12:45:23.174Z,4276
2016-03-29T12:46:23.192Z,4612
2016-03-29T12:47:23.210Z,4508
2016-03-29T12:48:23.229Z,3720
2016-03-29T12:49:23.262Z,4444
2016-03-29T12:50:23.296Z,4768
2016-03-29T12:51:23.315Z,4632
2016-03-29T12:52:23.348Z,4376
2016-03-29T12:53:23.351Z,4400
2016-03-29T12:54:23.384Z,4592
2016-03-29T12:55:23.403Z,4532
2016-03-29T12:56:23.437Z,4688
2016-03-29T12:57:23.471Z,4344
2016-03-29T12:58:23.489Z,4076
2016-03-29T12:59:23.508Z,4432
2016-03-29T13:00:23.541Z,4436
2016-03-29T13:01:23.560Z,4676
2016-03-29T13:02:23.562Z,4872
2016-03-29T13:03:23.612Z,4544
2016-03-29T13:04:23.630Z,5016
2016-03-29T13:05:23.649Z,4716
2016-03-29T13:06:23.573Z,2784
2016-03-29T13:07:23.685Z,4728
2016-03-29T13:08:23.719Z,4648
2016-03-29T13:09:23.754Z,4484
2016-03-29T13:10:23.788Z,4172
2016-03-29T13:11:23.790Z,4056
2016-03-29T13:12:23.808Z,4404
2016-03-29T13:13:23.843Z,3496
2016-03-29T13:14:23.860Z,1872
2016-03-29T13:15:23.879Z,1824
2016-03-29T13:16:23.913Z,1688
2016-03-29T13:17:23.931Z,1856
2016-03-29T13:18:23.965Z,3252
2016-03-29T13:19:23.984Z,2336
2016-03-29T13:20:24.033Z,5436
2016-03-29T13:21:24.051Z,5136
2016-03-29T13:22:24.084Z,4884
2016-03-29T13:23:24.087Z,4816
2016-03-29T13:24:24.122Z,4716
2016-03-29T13:25:24.140Z,1608
2016-03-29T13:26:24.158Z,1544
2016-03-29T13:27:24.192Z,1732
2016-03-29T13:28:24.194Z,1744
2016-03-29T13:29:24.213Z,4120
2016-03-29T13:30:24.247Z,1836
2016-03-29T13:31:24.266Z,1668
2016-03-29T13:32:24.283Z,1920
2016-03-29T13:33:24.349Z,1924
2016-03-29T13:34:24.352Z,3920
2016-03-29T13:35:24.354Z,1796
2016-03-29T13:36:24.388Z,1920
2016-03-29T13:37:24.422Z,2012
2016-03-29T13:38:24.440Z,1896
2016-03-29T13:39:24.459Z,1936
2016-03-29T13:40:24.337Z,3900
2016-03-29T13:41:24.495Z,4344
2016-03-29T13:42:24.529Z,3636
2016-03-29T13:43:24.563Z,2436
2016-03-29T13:44:24.581Z,2228
2016-03-29T13:45:24.600Z,2220
2016-03-29T13:46:24.618Z,1808
2016-03-29T13:47:24.637Z,1832
2016-03-29T13:48:24.686Z,1996
2016-03-29T13:49:24.737Z,2060
2016-03-29T13:50:24.754Z,2176
2016-03-29T13:51:24.726Z,2200